sensor_id;sensor_type;location;lat;lon;timestamp;temperature;humidity
4425;DHT22;2225;53.568;13.266;2023-02-04T00:00:22;6.40;96.50
4425;DHT22;2225;53.568;13.266;2023-02-04T00:02:49;6.40;96.40
4425;DHT22;2225;53.568;13.266;2023-02-04T00:05:16;6.40;96.30
4425;DHT22;2225;53.568;13.266;2023-02-04T00:07:44;6.40;96.10
4425;DHT22;2225;53.568;13.266;2023-02-04T00:10:11;6.40;96.10
4425;DHT22;2225;53.568;13.266;2023-02-04T00:12:38;6.30;96.00
4425;DHT22;2225;53.568;13.266;2023-02-04T00:15:05;6.30;95.90
4425;DHT22;2225;53.568;13.266;2023-02-04T00:17:32;6.30;95.80
4425;DHT22;2225;53.568;13.266;2023-02-04T00:19:59;6.30;95.70
4425;DHT22;2225;53.568;13.266;2023-02-04T00:22:26;6.20;95.70
4425;DHT22;2225;53.568;13.266;2023-02-04T00:24:54;6.20;95.60
4425;DHT22;2225;53.568;13.266;2023-02-04T00:27:21;6.20;95.60
4425;DHT22;2225;53.568;13.266;2023-02-04T00:29:48;6.20;95.60
4425;DHT22;2225;53.568;13.266;2023-02-04T00:32:15;6.10;95.50
4425;DHT22;2225;53.568;13.266;2023-02-04T00:34:42;6.10;95.50
4425;DHT22;2225;53.568;13.266;2023-02-04T00:37:09;6.10;95.50
4425;DHT22;2225;53.568;13.266;2023-02-04T00:39:36;6.00;95.50
4425;DHT22;2225;53.568;13.266;2023-02-04T00:42:04;6.00;95.50
4425;DHT22;2225;53.568;13.266;2023-02-04T00:44:31;6.00;95.50
4425;DHT22;2225;53.568;13.266;2023-02-04T00:46:58;5.90;95.50
4425;DHT22;2225;53.568;13.266;2023-02-04T00:49:25;5.90;95.50
4425;DHT22;2225;53.568;13.266;2023-02-04T00:51:52;5.90;95.50
4425;DHT22;2225;53.568;13.266;2023-02-04T00:54:19;5.90;95.50
4425;DHT22;2225;53.568;13.266;2023-02-04T00:56:46;5.80;95.50
4425;DHT22;2225;53.568;13.266;2023-02-04T00:59:14;5.80;95.50
4425;DHT22;2225;53.568;13.266;2023-02-04T01:01:41;5.70;95.50
4425;DHT22;2225;53.568;13.266;2023-02-04T01:04:08;5.70;95.60
4425;DHT22;2225;53.568;13.266;2023-02-04T01:06:36;5.70;95.70
4425;DHT22;2225;53.568;13.266;2023-02-04T01:09:03;5.70;95.80
4425;DHT22;2225;53.568;13.266;2023-02-04T01:11:31;5.70;95.90
4425;DHT22;2225;53.568;13.266;2023-02-04T01:13:58;5.70;96.00
4425;DHT22;2225;53.568;13.266;2023-02-04T01:16:25;5.70;96.00
4425;DHT22;2225;53.568;13.266;2023-02-04T01:18:53;5.80;96.10
4425;DHT22;2225;53.568;13.266;2023-02-04T01:21:23;5.80;96.10
4425;DHT22;2225;53.568;13.266;2023-02-04T01:23:50;5.80;96.10
4425;DHT22;2225;53.568;13.266;2023-02-04T01:26:18;5.90;96.00
4425;DHT22;2225;53.568;13.266;2023-02-04T01:28:46;5.90;96.00
4425;DHT22;2225;53.568;13.266;2023-02-04T01:31:13;5.90;95.90
4425;DHT22;2225;53.568;13.266;2023-02-04T01:33:41;5.90;95.90
4425;DHT22;2225;53.568;13.266;2023-02-04T01:36:08;5.90;95.80
4425;DHT22;2225;53.568;13.266;2023-02-04T01:38:35;5.90;95.80
4425;DHT22;2225;53.568;13.266;2023-02-04T01:41:04;5.90;95.80
4425;DHT22;2225;53.568;13.266;2023-02-04T01:43:32;5.90;95.90
4425;DHT22;2225;53.568;13.266;2023-02-04T01:45:59;5.90;95.90
4425;DHT22;2225;53.568;13.266;2023-02-04T01:48:28;5.90;96.00
4425;DHT22;2225;53.568;13.266;2023-02-04T01:51:03;5.90;96.00
4425;DHT22;2225;53.568;13.266;2023-02-04T01:53:32;5.90;96.00
4425;DHT22;2225;53.568;13.266;2023-02-04T01:56:01;5.90;96.10
4425;DHT22;2225;53.568;13.266;2023-02-04T01:58:39;6.00;96.20
4425;DHT22;2225;53.568;13.266;2023-02-04T02:01:13;6.00;96.20
4425;DHT22;2225;53.568;13.266;2023-02-04T02:03:41;6.00;96.30
4425;DHT22;2225;53.568;13.266;2023-02-04T02:06:09;6.00;96.30
4425;DHT22;2225;53.568;13.266;2023-02-04T02:08:36;6.00;96.40
4425;DHT22;2225;53.568;13.266;2023-02-04T02:11:04;6.00;96.40
4425;DHT22;2225;53.568;13.266;2023-02-04T02:13:30;6.00;96.30
4425;DHT22;2225;53.568;13.266;2023-02-04T02:15:58;6.00;96.20
4425;DHT22;2225;53.568;13.266;2023-02-04T02:18:24;6.10;96.20
4425;DHT22;2225;53.568;13.266;2023-02-04T02:20:51;6.10;96.20
4425;DHT22;2225;53.568;13.266;2023-02-04T02:26:15;6.10;96.20
4425;DHT22;2225;53.568;13.266;2023-02-04T02:28:43;6.10;96.20
4425;DHT22;2225;53.568;13.266;2023-02-04T02:31:11;6.10;96.20
4425;DHT22;2225;53.568;13.266;2023-02-04T02:33:38;6.10;96.20
4425;DHT22;2225;53.568;13.266;2023-02-04T02:36:05;6.00;96.20
4425;DHT22;2225;53.568;13.266;2023-02-04T02:38:33;6.10;96.20
4425;DHT22;2225;53.568;13.266;2023-02-04T02:41:00;6.10;96.10
4425;DHT22;2225;53.568;13.266;2023-02-04T02:43:27;6.10;96.00
4425;DHT22;2225;53.568;13.266;2023-02-04T02:45:58;6.10;96.00
4425;DHT22;2225;53.568;13.266;2023-02-04T02:48:25;6.00;95.90
4425;DHT22;2225;53.568;13.266;2023-02-04T02:50:52;6.00;95.80
4425;DHT22;2225;53.568;13.266;2023-02-04T02:53:21;5.90;95.80
4425;DHT22;2225;53.568;13.266;2023-02-04T02:55:48;5.90;95.90
4425;DHT22;2225;53.568;13.266;2023-02-04T02:58:25;5.90;95.90
4425;DHT22;2225;53.568;13.266;2023-02-04T03:00:55;5.90;95.90
4425;DHT22;2225;53.568;13.266;2023-02-04T03:03:29;5.80;95.90
4425;DHT22;2225;53.568;13.266;2023-02-04T03:06:04;5.80;96.00
4425;DHT22;2225;53.568;13.266;2023-02-04T03:08:34;5.70;95.90
4425;DHT22;2225;53.568;13.266;2023-02-04T03:11:02;5.70;95.90
4425;DHT22;2225;53.568;13.266;2023-02-04T03:13:30;5.70;96.00
4425;DHT22;2225;53.568;13.266;2023-02-04T03:15:57;5.60;96.00
4425;DHT22;2225;53.568;13.266;2023-02-04T03:18:24;5.60;96.10
4425;DHT22;2225;53.568;13.266;2023-02-04T03:20:51;5.50;96.10
4425;DHT22;2225;53.568;13.266;2023-02-04T03:23:18;5.50;96.10
4425;DHT22;2225;53.568;13.266;2023-02-04T03:25:46;5.50;96.20
4425;DHT22;2225;53.568;13.266;2023-02-04T03:28:13;5.40;96.30
4425;DHT22;2225;53.568;13.266;2023-02-04T03:30:40;5.40;96.40
4425;DHT22;2225;53.568;13.266;2023-02-04T03:33:07;5.40;96.40
4425;DHT22;2225;53.568;13.266;2023-02-04T03:35:34;5.30;96.40
4425;DHT22;2225;53.568;13.266;2023-02-04T03:38:01;5.30;96.40
4425;DHT22;2225;53.568;13.266;2023-02-04T03:40:28;5.30;96.50
4425;DHT22;2225;53.568;13.266;2023-02-04T03:42:55;5.30;96.60
4425;DHT22;2225;53.568;13.266;2023-02-04T03:45:22;5.30;96.60
4425;DHT22;2225;53.568;13.266;2023-02-04T03:47:50;5.30;96.70
4425;DHT22;2225;53.568;13.266;2023-02-04T03:50:17;5.30;96.80
4425;DHT22;2225;53.568;13.266;2023-02-04T03:52:44;5.30;96.80
4425;DHT22;2225;53.568;13.266;2023-02-04T03:55:11;5.40;96.80
4425;DHT22;2225;53.568;13.266;2023-02-04T03:57:38;5.40;96.80
4425;DHT22;2225;53.568;13.266;2023-02-04T04:00:05;5.40;96.70
4425;DHT22;2225;53.568;13.266;2023-02-04T04:02:39;5.40;96.60
4425;DHT22;2225;53.568;13.266;2023-02-04T04:05:07;5.40;96.50
4425;DHT22;2225;53.568;13.266;2023-02-04T04:07:34;5.40;96.40
4425;DHT22;2225;53.568;13.266;2023-02-04T04:10:02;5.40;96.30
4425;DHT22;2225;53.568;13.266;2023-02-04T04:12:29;5.40;96.30
4425;DHT22;2225;53.568;13.266;2023-02-04T04:14:56;5.40;96.30
4425;DHT22;2225;53.568;13.266;2023-02-04T04:17:23;5.30;96.30
4425;DHT22;2225;53.568;13.266;2023-02-04T04:19:49;5.30;96.20
4425;DHT22;2225;53.568;13.266;2023-02-04T04:22:16;5.30;96.20
4425;DHT22;2225;53.568;13.266;2023-02-04T04:24:43;5.30;96.30
4425;DHT22;2225;53.568;13.266;2023-02-04T04:27:10;5.30;96.30
4425;DHT22;2225;53.568;13.266;2023-02-04T04:29:37;5.20;96.40
4425;DHT22;2225;53.568;13.266;2023-02-04T04:32:04;5.20;96.40
4425;DHT22;2225;53.568;13.266;2023-02-04T04:34:31;5.20;96.40
4425;DHT22;2225;53.568;13.266;2023-02-04T04:36:58;5.10;96.50
4425;DHT22;2225;53.568;13.266;2023-02-04T04:39:25;5.10;96.50
4425;DHT22;2225;53.568;13.266;2023-02-04T04:41:52;5.10;96.60
4425;DHT22;2225;53.568;13.266;2023-02-04T04:44:19;5.10;96.70
4425;DHT22;2225;53.568;13.266;2023-02-04T04:46:46;5.10;96.60
4425;DHT22;2225;53.568;13.266;2023-02-04T04:49:13;5.10;96.50
4425;DHT22;2225;53.568;13.266;2023-02-04T04:51:40;5.10;96.50
4425;DHT22;2225;53.568;13.266;2023-02-04T04:54:07;5.10;96.50
4425;DHT22;2225;53.568;13.266;2023-02-04T04:56:34;5.10;96.60
4425;DHT22;2225;53.568;13.266;2023-02-04T04:59:00;5.00;96.60
4425;DHT22;2225;53.568;13.266;2023-02-04T05:01:28;5.00;96.60
4425;DHT22;2225;53.568;13.266;2023-02-04T05:03:55;5.00;96.50
4425;DHT22;2225;53.568;13.266;2023-02-04T05:06:23;5.00;96.50
4425;DHT22;2225;53.568;13.266;2023-02-04T05:08:51;5.00;96.50
4425;DHT22;2225;53.568;13.266;2023-02-04T05:11:19;4.90;96.40
4425;DHT22;2225;53.568;13.266;2023-02-04T05:13:46;4.90;96.40
4425;DHT22;2225;53.568;13.266;2023-02-04T05:16:13;4.90;96.30
4425;DHT22;2225;53.568;13.266;2023-02-04T05:18:41;4.80;96.30
4425;DHT22;2225;53.568;13.266;2023-02-04T05:21:08;4.80;96.30
4425;DHT22;2225;53.568;13.266;2023-02-04T05:23:35;4.80;96.30
4425;DHT22;2225;53.568;13.266;2023-02-04T05:26:02;4.80;96.40
4425;DHT22;2225;53.568;13.266;2023-02-04T05:28:29;4.70;96.30
4425;DHT22;2225;53.568;13.266;2023-02-04T05:30:56;4.70;96.40
4425;DHT22;2225;53.568;13.266;2023-02-04T05:33:23;4.70;96.40
4425;DHT22;2225;53.568;13.266;2023-02-04T05:35:49;4.60;96.30
4425;DHT22;2225;53.568;13.266;2023-02-04T05:38:16;4.60;96.30
4425;DHT22;2225;53.568;13.266;2023-02-04T05:40:43;4.60;96.30
4425;DHT22;2225;53.568;13.266;2023-02-04T05:43:10;4.60;96.40
4425;DHT22;2225;53.568;13.266;2023-02-04T05:45:37;4.50;96.30
4425;DHT22;2225;53.568;13.266;2023-02-04T05:48:04;4.50;96.30
4425;DHT22;2225;53.568;13.266;2023-02-04T05:50:31;4.50;96.30
4425;DHT22;2225;53.568;13.266;2023-02-04T05:53:08;4.50;96.40
4425;DHT22;2225;53.568;13.266;2023-02-04T05:55:35;4.50;96.40
4425;DHT22;2225;53.568;13.266;2023-02-04T05:58:02;4.40;96.40
4425;DHT22;2225;53.568;13.266;2023-02-04T06:00:29;4.40;96.40
4425;DHT22;2225;53.568;13.266;2023-02-04T06:02:56;4.40;96.40
4425;DHT22;2225;53.568;13.266;2023-02-04T06:05:23;4.40;96.40
4425;DHT22;2225;53.568;13.266;2023-02-04T06:07:50;4.30;96.40
4425;DHT22;2225;53.568;13.266;2023-02-04T06:10:17;4.30;96.30
4425;DHT22;2225;53.568;13.266;2023-02-04T06:12:44;4.30;96.30
4425;DHT22;2225;53.568;13.266;2023-02-04T06:15:11;4.30;96.40
4425;DHT22;2225;53.568;13.266;2023-02-04T06:17:38;4.30;96.40
4425;DHT22;2225;53.568;13.266;2023-02-04T06:20:07;4.30;96.50
4425;DHT22;2225;53.568;13.266;2023-02-04T06:22:34;4.30;96.60
4425;DHT22;2225;53.568;13.266;2023-02-04T06:25:01;4.20;96.50
4425;DHT22;2225;53.568;13.266;2023-02-04T06:27:28;4.20;96.40
4425;DHT22;2225;53.568;13.266;2023-02-04T06:29:55;4.20;96.30
4425;DHT22;2225;53.568;13.266;2023-02-04T06:32:22;4.20;96.40
4425;DHT22;2225;53.568;13.266;2023-02-04T06:34:49;4.20;96.40
4425;DHT22;2225;53.568;13.266;2023-02-04T06:37:16;4.20;96.30
4425;DHT22;2225;53.568;13.266;2023-02-04T06:39:43;4.20;96.30
4425;DHT22;2225;53.568;13.266;2023-02-04T06:42:10;4.20;96.30
4425;DHT22;2225;53.568;13.266;2023-02-04T06:44:37;4.10;96.30
4425;DHT22;2225;53.568;13.266;2023-02-04T06:47:04;4.10;96.40
4425;DHT22;2225;53.568;13.266;2023-02-04T06:49:31;4.10;96.30
4425;DHT22;2225;53.568;13.266;2023-02-04T06:51:58;4.10;96.30
4425;DHT22;2225;53.568;13.266;2023-02-04T06:54:25;4.10;96.40
4425;DHT22;2225;53.568;13.266;2023-02-04T06:56:52;4.10;96.40
4425;DHT22;2225;53.568;13.266;2023-02-04T06:59:19;4.10;96.50
4425;DHT22;2225;53.568;13.266;2023-02-04T07:01:45;4.00;96.50
4425;DHT22;2225;53.568;13.266;2023-02-04T07:04:12;4.10;96.60
4425;DHT22;2225;53.568;13.266;2023-02-04T07:06:39;4.00;96.60
4425;DHT22;2225;53.568;13.266;2023-02-04T07:09:06;4.00;96.70
4425;DHT22;2225;53.568;13.266;2023-02-04T07:11:33;4.00;96.70
4425;DHT22;2225;53.568;13.266;2023-02-04T07:14:01;4.00;96.80
4425;DHT22;2225;53.568;13.266;2023-02-04T07:16:27;4.00;96.80
4425;DHT22;2225;53.568;13.266;2023-02-04T07:18:54;4.10;96.80
4425;DHT22;2225;53.568;13.266;2023-02-04T07:21:21;4.10;96.90
4425;DHT22;2225;53.568;13.266;2023-02-04T07:23:48;4.10;96.90
4425;DHT22;2225;53.568;13.266;2023-02-04T07:26:15;4.10;96.90
4425;DHT22;2225;53.568;13.266;2023-02-04T07:28:42;4.10;97.20
4425;DHT22;2225;53.568;13.266;2023-02-04T07:31:09;4.10;96.90
4425;DHT22;2225;53.568;13.266;2023-02-04T07:33:37;4.10;96.90
4425;DHT22;2225;53.568;13.266;2023-02-04T07:36:04;4.10;97.00
4425;DHT22;2225;53.568;13.266;2023-02-04T07:38:31;4.10;97.00
4425;DHT22;2225;53.568;13.266;2023-02-04T07:40:57;4.10;97.10
4425;DHT22;2225;53.568;13.266;2023-02-04T07:43:24;4.10;97.10
4425;DHT22;2225;53.568;13.266;2023-02-04T07:45:51;4.10;97.40
4425;DHT22;2225;53.568;13.266;2023-02-04T07:48:18;4.20;97.10
4425;DHT22;2225;53.568;13.266;2023-02-04T07:50:45;4.20;97.20
4425;DHT22;2225;53.568;13.266;2023-02-04T07:53:12;4.20;97.10
4425;DHT22;2225;53.568;13.266;2023-02-04T07:55:39;4.30;97.10
4425;DHT22;2225;53.568;13.266;2023-02-04T07:58:06;4.30;97.00
4425;DHT22;2225;53.568;13.266;2023-02-04T08:00:33;4.30;97.00
4425;DHT22;2225;53.568;13.266;2023-02-04T08:03:00;4.40;97.00
4425;DHT22;2225;53.568;13.266;2023-02-04T08:05:27;4.40;97.00
4425;DHT22;2225;53.568;13.266;2023-02-04T08:07:55;4.40;97.00
4425;DHT22;2225;53.568;13.266;2023-02-04T08:10:24;4.50;97.00
4425;DHT22;2225;53.568;13.266;2023-02-04T08:12:50;4.40;96.90
4425;DHT22;2225;53.568;13.266;2023-02-04T08:15:17;4.50;97.00
4425;DHT22;2225;53.568;13.266;2023-02-04T08:17:44;4.50;97.00
4425;DHT22;2225;53.568;13.266;2023-02-04T08:20:11;4.50;97.10
4425;DHT22;2225;53.568;13.266;2023-02-04T08:22:38;4.60;97.20
4425;DHT22;2225;53.568;13.266;2023-02-04T08:25:05;4.60;97.20
4425;DHT22;2225;53.568;13.266;2023-02-04T08:27:32;4.70;97.20
4425;DHT22;2225;53.568;13.266;2023-02-04T08:29:59;4.70;97.00
4425;DHT22;2225;53.568;13.266;2023-02-04T08:32:26;4.70;96.90
4425;DHT22;2225;53.568;13.266;2023-02-04T08:34:54;4.80;96.80
4425;DHT22;2225;53.568;13.266;2023-02-04T08:37:21;4.80;96.70
4425;DHT22;2225;53.568;13.266;2023-02-04T08:39:48;4.80;96.70
4425;DHT22;2225;53.568;13.266;2023-02-04T08:42:15;4.80;96.70
4425;DHT22;2225;53.568;13.266;2023-02-04T08:44:42;4.80;96.70
4425;DHT22;2225;53.568;13.266;2023-02-04T08:47:10;4.90;96.80
4425;DHT22;2225;53.568;13.266;2023-02-04T08:49:37;4.90;96.80
4425;DHT22;2225;53.568;13.266;2023-02-04T08:52:07;5.00;96.90
4425;DHT22;2225;53.568;13.266;2023-02-04T08:54:34;5.00;97.00
4425;DHT22;2225;53.568;13.266;2023-02-04T08:57:01;5.10;97.20
4425;DHT22;2225;53.568;13.266;2023-02-04T08:59:29;5.10;97.10
4425;DHT22;2225;53.568;13.266;2023-02-04T09:01:56;5.20;97.00
4425;DHT22;2225;53.568;13.266;2023-02-04T09:04:23;5.30;96.90
4425;DHT22;2225;53.568;13.266;2023-02-04T09:06:50;5.30;96.70
4425;DHT22;2225;53.568;13.266;2023-02-04T09:09:17;5.40;96.50
4425;DHT22;2225;53.568;13.266;2023-02-04T09:11:48;5.40;96.20
4425;DHT22;2225;53.568;13.266;2023-02-04T09:14:14;5.50;96.20
4425;DHT22;2225;53.568;13.266;2023-02-04T09:16:42;5.50;96.10
4425;DHT22;2225;53.568;13.266;2023-02-04T09:19:09;5.50;96.00
4425;DHT22;2225;53.568;13.266;2023-02-04T09:21:38;5.50;96.00
4425;DHT22;2225;53.568;13.266;2023-02-04T09:24:05;5.50;96.20
4425;DHT22;2225;53.568;13.266;2023-02-04T09:26:32;5.60;95.90
4425;DHT22;2225;53.568;13.266;2023-02-04T09:28:59;5.50;95.80
4425;DHT22;2225;53.568;13.266;2023-02-04T09:31:25;5.50;95.90
4425;DHT22;2225;53.568;13.266;2023-02-04T09:33:52;5.60;96.10
4425;DHT22;2225;53.568;13.266;2023-02-04T09:36:19;5.60;96.20
4425;DHT22;2225;53.568;13.266;2023-02-04T09:38:46;5.70;95.90
4425;DHT22;2225;53.568;13.266;2023-02-04T09:41:13;5.80;96.10
4425;DHT22;2225;53.568;13.266;2023-02-04T09:43:43;5.80;96.10
4425;DHT22;2225;53.568;13.266;2023-02-04T09:46:20;5.90;96.10
4425;DHT22;2225;53.568;13.266;2023-02-04T09:48:49;6.00;95.60
4425;DHT22;2225;53.568;13.266;2023-02-04T09:51:19;6.10;95.80
4425;DHT22;2225;53.568;13.266;2023-02-04T09:53:48;6.20;95.40
4425;DHT22;2225;53.568;13.266;2023-02-04T09:56:15;6.30;95.30
4425;DHT22;2225;53.568;13.266;2023-02-04T09:58:44;6.40;95.00
4425;DHT22;2225;53.568;13.266;2023-02-04T10:01:17;6.50;94.90
4425;DHT22;2225;53.568;13.266;2023-02-04T10:03:46;6.50;94.80
4425;DHT22;2225;53.568;13.266;2023-02-04T10:06:18;6.60;94.10
4425;DHT22;2225;53.568;13.266;2023-02-04T10:08:48;6.60;94.40
4425;DHT22;2225;53.568;13.266;2023-02-04T10:11:17;6.60;93.70
4425;DHT22;2225;53.568;13.266;2023-02-04T10:13:48;6.60;93.70
4425;DHT22;2225;53.568;13.266;2023-02-04T10:16:19;6.60;94.00
4425;DHT22;2225;53.568;13.266;2023-02-04T10:19:03;6.60;94.10
4425;DHT22;2225;53.568;13.266;2023-02-04T10:21:34;6.60;94.00
4425;DHT22;2225;53.568;13.266;2023-02-04T10:24:22;6.70;94.10
4425;DHT22;2225;53.568;13.266;2023-02-04T10:26:52;6.70;93.30
4425;DHT22;2225;53.568;13.266;2023-02-04T10:29:21;6.80;93.70
4425;DHT22;2225;53.568;13.266;2023-02-04T10:31:51;6.80;93.50
4425;DHT22;2225;53.568;13.266;2023-02-04T10:34:23;6.90;92.60
4425;DHT22;2225;53.568;13.266;2023-02-04T10:37:18;6.90;92.40
4425;DHT22;2225;53.568;13.266;2023-02-04T10:39:46;7.00;92.10
4425;DHT22;2225;53.568;13.266;2023-02-04T10:42:25;7.00;90.70
4425;DHT22;2225;53.568;13.266;2023-02-04T10:44:56;6.90;88.70
4425;DHT22;2225;53.568;13.266;2023-02-04T10:47:28;6.90;90.20
4425;DHT22;2225;53.568;13.266;2023-02-04T10:50:01;6.90;90.20
4425;DHT22;2225;53.568;13.266;2023-02-04T10:52:57;6.80;89.40
4425;DHT22;2225;53.568;13.266;2023-02-04T10:55:45;6.80;89.60
4425;DHT22;2225;53.568;13.266;2023-02-04T10:58:17;6.80;88.00
4425;DHT22;2225;53.568;13.266;2023-02-04T11:00:48;6.70;88.00
4425;DHT22;2225;53.568;13.266;2023-02-04T11:03:21;6.80;87.40
4425;DHT22;2225;53.568;13.266;2023-02-04T11:05:55;6.90;88.40
4425;DHT22;2225;53.568;13.266;2023-02-04T11:08:31;6.90;87.40
4425;DHT22;2225;53.568;13.266;2023-02-04T11:11:16;7.00;88.10
4425;DHT22;2225;53.568;13.266;2023-02-04T11:14:00;7.10;88.00
4425;DHT22;2225;53.568;13.266;2023-02-04T11:16:30;7.10;88.50
4425;DHT22;2225;53.568;13.266;2023-02-04T11:19:05;7.20;87.90
4425;DHT22;2225;53.568;13.266;2023-02-04T11:26:35;7.10;88.80
4425;DHT22;2225;53.568;13.266;2023-02-04T11:39:39;7.20;87.30
4425;DHT22;2225;53.568;13.266;2023-02-04T11:42:20;7.20;87.30
4425;DHT22;2225;53.568;13.266;2023-02-04T11:44:54;7.20;85.80
4425;DHT22;2225;53.568;13.266;2023-02-04T11:47:25;7.20;85.10
4425;DHT22;2225;53.568;13.266;2023-02-04T11:50:00;7.20;85.60
4425;DHT22;2225;53.568;13.266;2023-02-04T11:52:29;7.20;86.10
4425;DHT22;2225;53.568;13.266;2023-02-04T11:54:59;7.20;85.30
4425;DHT22;2225;53.568;13.266;2023-02-04T11:57:26;7.20;84.90
4425;DHT22;2225;53.568;13.266;2023-02-04T11:59:53;7.20;83.80
4425;DHT22;2225;53.568;13.266;2023-02-04T12:02:23;7.20;85.00
4425;DHT22;2225;53.568;13.266;2023-02-04T12:05:10;7.20;85.00
4425;DHT22;2225;53.568;13.266;2023-02-04T12:07:39;7.20;83.10
4425;DHT22;2225;53.568;13.266;2023-02-04T12:10:13;7.20;83.10
4425;DHT22;2225;53.568;13.266;2023-02-04T12:12:54;7.20;84.50
4425;DHT22;2225;53.568;13.266;2023-02-04T12:15:31;7.20;83.60
4425;DHT22;2225;53.568;13.266;2023-02-04T12:18:07;7.20;84.20
4425;DHT22;2225;53.568;13.266;2023-02-04T12:20:35;7.20;83.80
4425;DHT22;2225;53.568;13.266;2023-02-04T12:23:03;7.20;83.30
4425;DHT22;2225;53.568;13.266;2023-02-04T12:25:31;7.30;83.50
4425;DHT22;2225;53.568;13.266;2023-02-04T12:27:58;7.30;81.80
4425;DHT22;2225;53.568;13.266;2023-02-04T12:30:25;7.30;80.40
4425;DHT22;2225;53.568;13.266;2023-02-04T12:32:52;7.30;80.90
4425;DHT22;2225;53.568;13.266;2023-02-04T12:35:19;7.30;81.00
4425;DHT22;2225;53.568;13.266;2023-02-04T12:37:46;7.30;80.90
4425;DHT22;2225;53.568;13.266;2023-02-04T12:40:15;7.30;81.20
4425;DHT22;2225;53.568;13.266;2023-02-04T12:42:43;7.30;81.30
4425;DHT22;2225;53.568;13.266;2023-02-04T12:45:12;7.30;81.40
4425;DHT22;2225;53.568;13.266;2023-02-04T12:47:40;7.40;81.80
4425;DHT22;2225;53.568;13.266;2023-02-04T12:50:08;7.40;81.90
4425;DHT22;2225;53.568;13.266;2023-02-04T12:52:36;7.50;81.90
4425;DHT22;2225;53.568;13.266;2023-02-04T12:55:06;7.60;81.00
4425;DHT22;2225;53.568;13.266;2023-02-04T12:57:34;7.60;79.70
4425;DHT22;2225;53.568;13.266;2023-02-04T13:00:02;7.60;80.30
4425;DHT22;2225;53.568;13.266;2023-02-04T13:02:30;7.60;80.10
4425;DHT22;2225;53.568;13.266;2023-02-04T13:04:56;7.60;81.30
4425;DHT22;2225;53.568;13.266;2023-02-04T13:07:23;7.60;80.30
4425;DHT22;2225;53.568;13.266;2023-02-04T13:09:50;7.60;79.20
4425;DHT22;2225;53.568;13.266;2023-02-04T13:12:17;7.60;79.80
4425;DHT22;2225;53.568;13.266;2023-02-04T13:14:44;7.50;79.60
4425;DHT22;2225;53.568;13.266;2023-02-04T13:17:11;7.40;79.40
4425;DHT22;2225;53.568;13.266;2023-02-04T13:19:38;7.30;79.20
4425;DHT22;2225;53.568;13.266;2023-02-04T13:22:05;7.30;79.30
4425;DHT22;2225;53.568;13.266;2023-02-04T13:24:32;7.20;78.10
4425;DHT22;2225;53.568;13.266;2023-02-04T13:26:59;7.20;78.00
4425;DHT22;2225;53.568;13.266;2023-02-04T13:29:26;7.20;78.60
4425;DHT22;2225;53.568;13.266;2023-02-04T13:31:53;7.20;79.10
4425;DHT22;2225;53.568;13.266;2023-02-04T13:34:20;7.20;79.50
4425;DHT22;2225;53.568;13.266;2023-02-04T13:36:47;7.20;79.40
4425;DHT22;2225;53.568;13.266;2023-02-04T13:39:14;7.10;79.20
4425;DHT22;2225;53.568;13.266;2023-02-04T13:41:41;7.10;79.10
4425;DHT22;2225;53.568;13.266;2023-02-04T13:44:08;7.10;78.50
4425;DHT22;2225;53.568;13.266;2023-02-04T13:46:35;7.00;79.00
4425;DHT22;2225;53.568;13.266;2023-02-04T13:49:02;7.00;79.10
4425;DHT22;2225;53.568;13.266;2023-02-04T13:51:29;6.90;79.20
4425;DHT22;2225;53.568;13.266;2023-02-04T13:53:56;6.90;78.80
4425;DHT22;2225;53.568;13.266;2023-02-04T13:56:25;6.80;79.00
4425;DHT22;2225;53.568;13.266;2023-02-04T13:58:53;6.80;79.00
4425;DHT22;2225;53.568;13.266;2023-02-04T14:01:20;6.80;79.70
4425;DHT22;2225;53.568;13.266;2023-02-04T14:03:47;6.80;80.20
4425;DHT22;2225;53.568;13.266;2023-02-04T14:06:14;6.80;80.60
4425;DHT22;2225;53.568;13.266;2023-02-04T14:08:41;6.70;79.00
4425;DHT22;2225;53.568;13.266;2023-02-04T14:11:08;6.60;78.20
4425;DHT22;2225;53.568;13.266;2023-02-04T14:13:35;6.60;78.60
4425;DHT22;2225;53.568;13.266;2023-02-04T14:16:02;6.50;78.90
4425;DHT22;2225;53.568;13.266;2023-02-04T14:18:29;6.50;79.80
4425;DHT22;2225;53.568;13.266;2023-02-04T14:20:56;6.40;79.30
4425;DHT22;2225;53.568;13.266;2023-02-04T14:23:23;6.30;78.30
4425;DHT22;2225;53.568;13.266;2023-02-04T14:25:50;6.30;79.40
4425;DHT22;2225;53.568;13.266;2023-02-04T14:28:17;6.30;79.50
4425;DHT22;2225;53.568;13.266;2023-02-04T14:30:44;6.30;79.70
4425;DHT22;2225;53.568;13.266;2023-02-04T14:33:10;6.30;80.50
4425;DHT22;2225;53.568;13.266;2023-02-04T14:35:38;6.20;80.20
4425;DHT22;2225;53.568;13.266;2023-02-04T14:38:05;6.20;80.40
4425;DHT22;2225;53.568;13.266;2023-02-04T14:40:32;6.20;78.80
4425;DHT22;2225;53.568;13.266;2023-02-04T14:42:59;6.20;79.10
4425;DHT22;2225;53.568;13.266;2023-02-04T14:45:26;6.10;79.10
4425;DHT22;2225;53.568;13.266;2023-02-04T14:47:54;6.10;79.30
4425;DHT22;2225;53.568;13.266;2023-02-04T14:50:22;6.20;79.80
4425;DHT22;2225;53.568;13.266;2023-02-04T14:52:53;6.00;79.40
4425;DHT22;2225;53.568;13.266;2023-02-04T14:55:23;6.00;79.80
4425;DHT22;2225;53.568;13.266;2023-02-04T14:57:50;6.00;80.10
4425;DHT22;2225;53.568;13.266;2023-02-04T15:00:18;6.00;80.20
4425;DHT22;2225;53.568;13.266;2023-02-04T15:02:46;5.90;80.70
4425;DHT22;2225;53.568;13.266;2023-02-04T15:05:13;5.90;80.20
4425;DHT22;2225;53.568;13.266;2023-02-04T15:07:41;5.90;80.60
4425;DHT22;2225;53.568;13.266;2023-02-04T15:10:08;5.80;80.40
4425;DHT22;2225;53.568;13.266;2023-02-04T15:12:36;5.80;80.40
4425;DHT22;2225;53.568;13.266;2023-02-04T15:15:04;5.80;80.30
4425;DHT22;2225;53.568;13.266;2023-02-04T15:17:31;5.80;80.70
4425;DHT22;2225;53.568;13.266;2023-02-04T15:19:58;5.70;80.80
4425;DHT22;2225;53.568;13.266;2023-02-04T15:22:25;5.70;81.10
4425;DHT22;2225;53.568;13.266;2023-02-04T15:24:52;5.60;81.40
4425;DHT22;2225;53.568;13.266;2023-02-04T15:27:19;5.60;81.30
4425;DHT22;2225;53.568;13.266;2023-02-04T15:29:46;5.50;81.40
4425;DHT22;2225;53.568;13.266;2023-02-04T15:32:13;5.50;81.40
4425;DHT22;2225;53.568;13.266;2023-02-04T15:34:40;5.40;81.30
4425;DHT22;2225;53.568;13.266;2023-02-04T15:37:06;5.40;81.70
4425;DHT22;2225;53.568;13.266;2023-02-04T15:39:37;5.30;81.80
4425;DHT22;2225;53.568;13.266;2023-02-04T15:42:04;5.30;82.10
4425;DHT22;2225;53.568;13.266;2023-02-04T15:44:31;5.20;82.20
4425;DHT22;2225;53.568;13.266;2023-02-04T15:46:58;5.20;82.50
4425;DHT22;2225;53.568;13.266;2023-02-04T15:49:25;5.10;82.80
4425;DHT22;2225;53.568;13.266;2023-02-04T15:51:52;5.10;82.90
4425;DHT22;2225;53.568;13.266;2023-02-04T15:54:18;5.00;83.10
4425;DHT22;2225;53.568;13.266;2023-02-04T15:56:45;5.00;83.40
4425;DHT22;2225;53.568;13.266;2023-02-04T15:59:12;4.90;83.60
4425;DHT22;2225;53.568;13.266;2023-02-04T16:01:41;4.90;83.90
4425;DHT22;2225;53.568;13.266;2023-02-04T16:04:08;4.80;83.90
4425;DHT22;2225;53.568;13.266;2023-02-04T16:06:35;4.80;84.10
4425;DHT22;2225;53.568;13.266;2023-02-04T16:09:02;4.70;84.20
4425;DHT22;2225;53.568;13.266;2023-02-04T16:11:29;4.70;84.40
4425;DHT22;2225;53.568;13.266;2023-02-04T16:13:56;4.60;84.50
4425;DHT22;2225;53.568;13.266;2023-02-04T16:16:24;4.60;84.70
4425;DHT22;2225;53.568;13.266;2023-02-04T16:18:51;4.50;84.70
4425;DHT22;2225;53.568;13.266;2023-02-04T16:21:18;4.50;84.90
4425;DHT22;2225;53.568;13.266;2023-02-04T16:23:44;4.50;85.10
4425;DHT22;2225;53.568;13.266;2023-02-04T16:26:12;4.40;85.20